createdAt,value
2018-08-09T00:00:47.984Z,70.51
2018-08-09T00:01:47.924Z,70.70
2018-08-09T00:02:47.912Z,70.80
2018-08-09T00:03:47.932Z,70.42
2018-08-09T00:04:47.985Z,70.42
2018-08-09T00:05:47.990Z,70.94
2018-08-09T00:06:47.981Z,70.61
2018-08-09T00:07:47.969Z,70.42
2018-08-09T00:08:47.992Z,71.58
2018-08-09T00:09:48.404Z,71.86
2018-08-09T00:10:47.951Z,71.96
2018-08-09T00:11:54.129Z,71.38
2018-08-09T00:12:53.913Z,71.19
2018-08-09T00:13:53.942Z,71.28
2018-08-09T00:14:47.924Z,71.96
2018-08-09T00:15:47.888Z,72.15
2018-08-09T00:16:48.183Z,71.48
2018-08-09T00:17:47.561Z,72.06
2018-08-09T00:18:48.023Z,71.96
2018-08-09T00:19:48.065Z,72.34
2018-08-09T00:20:48.084Z,72.15
2018-08-09T00:21:47.981Z,72.15
2018-08-09T00:22:48.016Z,71.86
2018-08-09T00:23:54.494Z,72.15
2018-08-09T00:25:01.935Z,72.06
2018-08-09T00:25:47.922Z,71.96
2018-08-09T00:26:48.471Z,72.25
2018-08-09T00:27:47.942Z,72.73
2018-08-09T00:28:53.905Z,72.63
2018-08-09T00:29:47.963Z,72.34
2018-08-09T00:31:01.295Z,72.73
2018-08-09T00:31:47.968Z,72.73
2018-08-09T00:32:47.897Z,72.83
2018-08-09T00:33:47.908Z,72.44
2018-08-09T00:34:49.721Z,72.92
2018-08-09T00:35:47.979Z,72.34
2018-08-09T00:36:53.949Z,73.02
2018-08-09T00:38:01.937Z,73.50
2018-08-09T00:38:47.933Z,73.60
2018-08-09T00:39:47.931Z,74.08
2018-08-09T00:40:47.955Z,73.99
2018-08-09T00:41:47.893Z,74.08
2018-08-09T00:42:48.450Z,73.89
2018-08-09T00:44:48.098Z,74.08
2018-08-09T00:45:47.962Z,74.76
2018-08-09T00:46:47.992Z,74.37
2018-08-09T00:47:48.455Z,73.99
2018-08-09T00:48:47.936Z,74.66
2018-08-09T00:49:48.121Z,74.76
2018-08-09T00:50:54.124Z,74.57
2018-08-09T00:51:53.931Z,74.76
2018-08-09T00:52:53.921Z,74.76
2018-08-09T00:53:53.922Z,74.18
2018-08-09T00:54:53.914Z,73.99
2018-08-09T00:55:53.929Z,73.99
2018-08-09T00:56:47.913Z,74.37
2018-08-09T00:57:47.916Z,74.76
2018-08-09T00:58:47.920Z,74.37
2018-08-09T00:59:47.949Z,75.05
2018-08-09T01:00:47.926Z,74.37
2018-08-09T01:01:47.922Z,75.24
2018-08-09T01:02:47.916Z,74.76
2018-08-09T01:03:47.977Z,75.05
2018-08-09T01:04:47.920Z,75.72
2018-08-09T01:05:47.938Z,75.62
2018-08-09T01:06:48.147Z,76.30
2018-08-09T01:07:48.147Z,76.20
2018-08-09T01:08:48.146Z,76.50
2018-08-09T01:09:47.939Z,76.10
2018-08-09T01:10:47.974Z,75.72
2018-08-09T01:11:47.922Z,76.20
2018-08-09T01:12:47.987Z,76.30
2018-08-09T01:13:47.940Z,76.20
2018-08-09T01:14:48.150Z,76.20
2018-08-09T01:15:48.156Z,76.78
2018-08-09T01:16:47.933Z,76.30
2018-08-09T01:17:47.939Z,76.59
2018-08-09T01:18:47.982Z,76.68
2018-08-09T01:19:47.926Z,76.68
2018-08-09T01:20:48.162Z,76.40
2018-08-09T01:21:48.155Z,76.40
2018-08-09T01:22:48.142Z,76.59
2018-08-09T01:23:48.152Z,76.68
2018-08-09T01:24:47.982Z,77.26
2018-08-09T01:25:48.155Z,76.50
2018-08-09T01:26:48.154Z,76.20
2018-08-09T01:27:48.160Z,76.40
2018-08-09T01:28:48.162Z,76.68
2018-08-09T01:29:48.136Z,77.07
2018-08-09T01:30:47.948Z,77.26
2018-08-09T01:31:47.888Z,77.75
2018-08-09T01:32:47.959Z,78.09
2018-08-09T01:33:47.967Z,78.13
2018-08-09T01:34:48.156Z,77.65
2018-08-09T01:35:47.924Z,77.26
2018-08-09T01:36:47.920Z,77.81
2018-08-09T01:37:47.908Z,78.67
2018-08-09T01:38:47.988Z,78.13
2018-08-09T01:39:47.965Z,77.75
2018-08-09T01:40:47.927Z,77.26
2018-08-09T01:41:47.927Z,77.84
2018-08-09T01:42:47.917Z,77.07
2018-08-09T01:43:48.166Z,78.23
2018-08-09T01:44:47.919Z,78.23
2018-08-09T01:45:47.923Z,77.65
2018-08-09T01:46:49.739Z,78.29
2018-08-09T01:47:48.143Z,78.19
2018-08-09T01:48:48.168Z,78.38
2018-08-09T01:49:48.154Z,78.77
2018-08-09T01:50:48.169Z,79.25
2018-08-09T01:51:48.167Z,79.44
2018-08-09T01:52:47.977Z,79.25
2018-08-09T01:53:47.974Z,79.54
2018-08-09T01:54:49.740Z,79.06
2018-08-09T01:55:50.163Z,79.25
2018-08-09T01:56:47.969Z,79.44
2018-08-09T01:57:47.985Z,80.02
2018-08-09T01:58:48.170Z,80.12
2018-08-09T01:59:48.168Z,80.02
2018-08-09T02:00:49.763Z,80.22
2018-08-09T02:01:48.175Z,79.25
2018-08-09T02:02:47.998Z,79.64
2018-08-09T02:03:47.982Z,79.54
2018-08-09T02:04:48.264Z,80.12
2018-08-09T02:05:48.174Z,79.64
2018-08-09T02:06:49.775Z,79.64
2018-08-09T02:07:48.022Z,80.41
2018-08-09T02:08:47.946Z,80.12
2018-08-09T02:09:48.175Z,80.02
2018-08-09T02:10:47.922Z,79.93
2018-08-09T02:11:48.201Z,79.25
2018-08-09T02:12:47.613Z,80.12
2018-08-09T02:13:47.935Z,80.41
2018-08-09T02:14:48.069Z,80.18
2018-08-09T02:15:48.025Z,79.93
2018-08-09T02:16:48.021Z,79.35
2018-08-09T02:17:48.071Z,80.46
2018-08-09T02:18:48.046Z,81.04
2018-08-09T02:19:47.958Z,81.14
2018-08-09T02:20:47.947Z,81.43
2018-08-09T02:21:48.090Z,80.56
2018-08-09T02:22:48.017Z,81.33
2018-08-09T02:23:48.073Z,81.33
2018-08-09T02:24:48.527Z,80.89
2018-08-09T02:25:47.961Z,81.33
2018-08-09T02:26:48.016Z,81.33
2018-08-09T02:27:47.997Z,80.69
2018-08-09T02:28:47.940Z,81.43
2018-08-09T02:29:47.648Z,80.69
2018-08-09T02:30:48.036Z,80.69
2018-08-09T02:31:48.149Z,80.60
2018-08-09T02:32:47.982Z,80.12
2018-08-09T02:33:48.150Z,80.69
2018-08-09T02:34:48.089Z,81.47
2018-08-09T02:35:48.016Z,80.60
2018-08-09T02:36:48.007Z,80.60
2018-08-09T02:37:48.221Z,80.69
2018-08-09T02:38:47.537Z,81.43
2018-08-09T02:39:48.080Z,81.24
2018-08-09T02:40:47.963Z,81.43
2018-08-09T02:41:47.983Z,81.43
2018-08-09T02:42:48.013Z,81.81
2018-08-09T02:43:48.057Z,82.29
2018-08-09T02:44:48.065Z,82.01
2018-08-09T02:45:48.009Z,82.20
2018-08-09T02:46:48.053Z,82.10
2018-08-09T02:47:48.086Z,81.91
2018-08-09T02:48:48.206Z,81.14
2018-08-09T02:49:48.791Z,81.62
2018-08-09T02:50:47.965Z,82.39
2018-08-09T02:51:47.982Z,81.52
2018-08-09T02:52:47.985Z,81.52
2018-08-09T02:53:47.977Z,82.20
2018-08-09T02:54:47.981Z,81.52
2018-08-09T02:55:47.980Z,81.52
2018-08-09T02:56:47.993Z,82.87
2018-08-09T02:57:47.988Z,82.68
2018-08-09T02:58:47.992Z,83.07
2018-08-09T02:59:47.975Z,83.07
2018-08-09T03:00:48.001Z,83.16
2018-08-09T03:01:48.001Z,82.87
2018-08-09T03:02:47.971Z,83.26
2018-08-09T03:03:48.000Z,83.07
2018-08-09T03:04:48.000Z,83.16
2018-08-09T03:05:47.971Z,84.12
2018-08-09T03:06:48.171Z,82.87
2018-08-09T03:07:47.986Z,83.84
2018-08-09T03:08:48.015Z,84.42
2018-08-09T03:09:47.992Z,84.12
2018-08-09T03:10:48.004Z,83.74
2018-08-09T03:11:47.989Z,83.94
2018-08-09T03:12:48.017Z,83.94
2018-08-09T03:13:48.178Z,82.87
2018-08-09T03:14:48.182Z,83.84
2018-08-09T03:15:48.038Z,84.56
2018-08-09T03:16:48.202Z,85.14
2018-08-09T03:17:48.178Z,85.34
2018-08-09T03:18:48.009Z,84.52
2018-08-09T03:19:48.018Z,85.24
2018-08-09T03:20:48.544Z,85.63
2018-08-09T03:21:48.119Z,85.72
2018-08-09T03:22:48.205Z,85.82
2018-08-09T03:23:48.507Z,86.21
2018-08-09T03:24:48.031Z,85.91
2018-08-09T03:25:47.968Z,86.21
2018-08-09T03:26:47.982Z,86.49
2018-08-09T03:27:47.981Z,86.11
2018-08-09T03:28:47.966Z,85.34
2018-08-09T03:29:48.017Z,85.05
2018-08-09T03:30:47.980Z,85.14
2018-08-09T03:31:48.236Z,85.63
2018-08-09T03:32:47.556Z,85.47
2018-08-09T03:33:48.021Z,86.11
2018-08-09T03:34:47.985Z,86.11
2018-08-09T03:35:47.985Z,85.72
2018-08-09T03:36:48.017Z,85.91
2018-08-09T03:37:48.065Z,86.98
2018-08-09T03:38:48.004Z,87.74
2018-08-09T03:39:48.029Z,87.94
2018-08-09T03:40:48.042Z,87.55
2018-08-09T03:41:48.049Z,86.49
2018-08-09T03:42:48.522Z,86.78
2018-08-09T03:43:48.206Z,87.17
2018-08-09T03:44:48.526Z,87.26
2018-08-09T03:45:48.184Z,87.55
2018-08-09T03:46:48.002Z,88.23
2018-08-09T03:47:48.020Z,88.04
2018-08-09T03:48:48.024Z,87.55
2018-08-09T03:49:47.956Z,87.65
2018-08-09T03:50:48.287Z,87.46
2018-08-09T03:51:47.973Z,87.84
2018-08-09T03:52:48.188Z,88.13
2018-08-09T03:53:48.197Z,88.04
2018-08-09T03:54:48.016Z,88.04
2018-08-09T03:55:47.980Z,88.04
2018-08-09T03:56:48.198Z,88.81
2018-08-09T03:57:48.012Z,88.32
2018-08-09T03:58:48.190Z,88.76
2018-08-09T03:59:48.292Z,88.61
2018-08-09T04:00:46.520Z,89.05
2018-08-09T04:01:46.560Z,88.04
2018-08-09T04:02:47.211Z,88.95
2018-08-09T04:03:47.658Z,89.05
2018-08-09T04:04:47.200Z,89.29
2018-08-09T04:05:48.062Z,88.71
2018-08-09T04:06:48.063Z,88.51
2018-08-09T04:07:48.102Z,88.71
2018-08-09T04:08:47.697Z,88.71
2018-08-09T04:09:47.654Z,88.90
2018-08-09T04:10:48.076Z,88.51
2018-08-09T04:11:47.631Z,89.53
2018-08-09T04:12:46.534Z,89.77
2018-08-09T04:13:47.668Z,89.15
2018-08-09T04:14:47.662Z,88.51
2018-08-09T04:15:47.609Z,88.42
2018-08-09T04:16:48.185Z,88.51
2018-08-09T04:17:47.501Z,88.71
2018-08-09T04:18:47.699Z,89.67
2018-08-09T04:19:47.688Z,89.34
2018-08-09T04:20:50.216Z,89.82
2018-08-09T04:21:47.321Z,89.92
2018-08-09T04:22:48.662Z,90.40
2018-08-09T04:23:47.702Z,90.11
2018-08-09T04:24:48.205Z,90.01
2018-08-09T04:25:47.585Z,90.20
2018-08-09T04:26:48.197Z,90.01
2018-08-09T04:27:48.404Z,90.11
2018-08-09T04:28:48.034Z,90.01
2018-08-09T04:29:48.037Z,89.29
2018-08-09T04:30:48.090Z,89.48
2018-08-09T04:31:48.308Z,89.92
2018-08-09T04:32:48.228Z,90.50
2018-08-09T04:33:48.060Z,89.77
2018-08-09T04:34:48.318Z,89.58
2018-08-09T04:35:48.107Z,89.39
2018-08-09T04:36:48.223Z,89.58
2018-08-09T04:37:48.581Z,89.96
2018-08-09T04:38:49.713Z,90.06
2018-08-09T04:39:48.099Z,89.96
2018-08-09T04:40:48.072Z,89.48
2018-08-09T04:41:48.530Z,89.77
2018-08-09T04:42:48.229Z,90.34
2018-08-09T04:43:48.001Z,89.39
2018-08-09T04:44:48.255Z,89.67
2018-08-09T04:45:49.890Z,90.06
2018-08-09T04:46:48.086Z,89.86
2018-08-09T04:47:48.064Z,89.96
2018-08-09T04:48:48.135Z,89.96
2018-08-09T04:49:48.279Z,89.86
2018-08-09T04:50:48.307Z,89.77
2018-08-09T04:51:48.006Z,89.96
2018-08-09T04:52:48.075Z,90.16
2018-08-09T04:53:48.064Z,90.44
2018-08-09T04:54:48.249Z,89.86
2018-08-09T04:55:48.080Z,89.39
2018-08-09T04:56:48.022Z,89.58
2018-08-09T04:57:48.048Z,88.90
2018-08-09T04:58:48.024Z,89.86
2018-08-09T04:59:48.067Z,90.34
2018-08-09T05:00:48.084Z,89.19
2018-08-09T05:01:48.076Z,89.48
2018-08-09T05:02:48.584Z,89.96
2018-08-09T05:03:48.077Z,90.34
2018-08-09T05:04:48.578Z,89.29
2018-08-09T05:05:48.055Z,89.67
2018-08-09T05:06:48.205Z,89.39
2018-08-09T05:07:48.218Z,89.09
2018-08-09T05:08:48.527Z,89.96
2018-08-09T05:09:48.579Z,89.96
2018-08-09T05:10:48.558Z,90.34
2018-08-09T05:11:48.105Z,89.96
2018-08-09T05:12:48.064Z,90.16
2018-08-09T05:13:48.558Z,89.86
2018-08-09T05:14:48.326Z,89.77
2018-08-09T05:15:48.227Z,89.33
2018-08-09T05:16:48.118Z,88.65
2018-08-09T05:17:48.082Z,88.61
2018-08-09T05:18:48.073Z,87.70
2018-08-09T05:19:48.225Z,87.21
2018-08-09T05:20:48.087Z,85.96
2018-08-09T05:21:48.278Z,85.86
2018-08-09T05:22:48.053Z,87.50
2018-08-09T05:23:48.082Z,88.27
2018-08-09T05:24:48.034Z,88.27
2018-08-09T05:25:48.738Z,87.30
2018-08-09T05:26:48.027Z,87.50
2018-08-09T05:27:47.991Z,88.08
2018-08-09T05:28:48.245Z,87.50
2018-08-09T05:29:48.273Z,87.40
2018-08-09T05:30:48.091Z,86.82
2018-08-09T05:31:48.091Z,86.63
2018-08-09T05:32:48.590Z,85.86
2018-08-09T05:33:48.280Z,86.05
2018-08-09T05:34:48.108Z,85.96
2018-08-09T05:35:48.587Z,85.67
2018-08-09T05:36:48.447Z,85.96
2018-08-09T05:37:48.577Z,86.15
2018-08-09T05:38:48.096Z,85.77
2018-08-09T05:39:48.038Z,85.38
2018-08-09T05:40:48.275Z,85.96
2018-08-09T05:41:48.711Z,86.05
2018-08-09T05:42:48.062Z,85.96
2018-08-09T05:43:48.514Z,85.67
2018-08-09T05:44:48.285Z,85.47
2018-08-09T05:45:48.110Z,85.57
2018-08-09T05:46:48.378Z,85.77
2018-08-09T05:47:48.590Z,85.67
2018-08-09T05:48:48.595Z,85.19
2018-08-09T05:49:48.863Z,84.99
2018-08-09T05:50:49.673Z,84.90
2018-08-09T05:51:46.567Z,85.09
2018-08-09T05:52:48.692Z,85.86
2018-08-09T05:53:47.040Z,84.99
2018-08-09T05:54:46.960Z,85.03
2018-08-09T05:55:47.298Z,85.19
2018-08-09T05:56:48.005Z,85.28
2018-08-09T05:57:48.235Z,85.47
2018-08-09T05:58:47.988Z,85.77
2018-08-09T05:59:46.656Z,85.47
2018-08-09T06:00:46.623Z,85.67
2018-08-09T06:01:48.696Z,85.38
2018-08-09T06:02:47.991Z,85.47
2018-08-09T06:03:48.078Z,85.09
2018-08-09T06:04:48.512Z,84.80
2018-08-09T06:05:47.666Z,84.32
2018-08-09T06:06:47.787Z,84.61
2018-08-09T06:07:47.338Z,84.52
2018-08-09T06:08:46.568Z,84.07
2018-08-09T06:09:48.062Z,83.88
2018-08-09T06:10:47.573Z,83.45
2018-08-09T06:11:47.579Z,83.20
2018-08-09T06:12:47.793Z,82.34
2018-08-09T06:13:46.600Z,83.20
2018-08-09T06:14:46.570Z,83.01
2018-08-09T06:15:46.713Z,83.16
2018-08-09T06:16:46.635Z,82.82
2018-08-09T06:17:47.600Z,82.87
2018-08-09T06:18:47.846Z,83.16
2018-08-09T06:19:46.588Z,83.36
2018-08-09T06:20:47.815Z,83.94
2018-08-09T06:21:46.652Z,84.12
2018-08-09T06:22:46.600Z,83.84
2018-08-09T06:23:46.580Z,84.03
2018-08-09T06:24:48.339Z,83.55
2018-08-09T06:25:48.927Z,83.36
2018-08-09T06:26:49.416Z,82.97
2018-08-09T06:27:46.553Z,82.72
2018-08-09T06:28:47.742Z,83.07
2018-08-09T06:29:46.556Z,83.16
2018-08-09T06:30:46.667Z,82.92
2018-08-09T06:31:46.562Z,83.30
2018-08-09T06:32:47.747Z,83.69
2018-08-09T06:33:47.977Z,83.59
2018-08-09T06:34:48.427Z,83.40
2018-08-09T06:35:46.575Z,83.78
2018-08-09T06:36:48.464Z,83.88
2018-08-09T06:37:48.222Z,83.59
2018-08-09T06:38:47.614Z,83.98
2018-08-09T06:39:47.739Z,84.36
2018-08-09T06:40:48.080Z,84.36
2018-08-09T06:41:46.652Z,84.46
2018-08-09T06:42:48.380Z,84.55
2018-08-09T06:43:48.316Z,84.07
2018-08-09T06:44:48.109Z,84.94
2018-08-09T06:45:46.665Z,84.75
2018-08-09T06:46:46.709Z,84.55
2018-08-09T06:47:48.700Z,84.46
2018-08-09T06:48:48.110Z,84.65
2018-08-09T06:49:48.598Z,84.46
2018-08-09T06:50:47.752Z,84.69
2018-08-09T06:51:46.628Z,83.83
2018-08-09T06:52:48.109Z,83.88
2018-08-09T06:53:48.088Z,83.98
2018-08-09T06:54:48.160Z,83.98
2018-08-09T06:55:47.773Z,84.36
2018-08-09T06:56:47.924Z,84.01
2018-08-09T06:57:48.496Z,83.98
2018-08-09T06:58:48.022Z,83.98
2018-08-09T06:59:47.549Z,83.15
2018-08-09T07:00:47.680Z,83.98
2018-08-09T07:01:48.037Z,84.46
2018-08-09T07:02:48.102Z,84.17
2018-08-09T07:03:50.237Z,84.50
2018-08-09T07:04:47.737Z,84.98
2018-08-09T07:05:48.148Z,84.46
2018-08-09T07:06:48.139Z,84.17
2018-08-09T07:07:48.012Z,84.75
2018-08-09T07:08:48.695Z,84.75
2018-08-09T07:09:47.672Z,84.75
2018-08-09T07:10:47.535Z,84.55
2018-08-09T07:11:47.783Z,84.55
2018-08-09T07:12:48.110Z,84.11
2018-08-09T07:13:47.646Z,83.25
2018-08-09T07:14:48.604Z,83.25
2018-08-09T07:15:48.123Z,82.86
2018-08-09T07:16:48.009Z,82.86
2018-08-09T07:17:48.074Z,82.76
2018-08-09T07:18:49.762Z,82.76
2018-08-09T07:19:48.082Z,83.05
2018-08-09T07:20:48.128Z,82.72
2018-08-09T07:21:48.175Z,82.76
2018-08-09T07:22:49.513Z,82.96
2018-08-09T07:23:48.123Z,83.05
2018-08-09T07:24:48.342Z,81.99
2018-08-09T07:25:48.411Z,82.67
2018-08-09T07:26:48.182Z,82.09
2018-08-09T07:27:47.662Z,82.48
2018-08-09T07:28:48.110Z,82.82
2018-08-09T07:29:47.687Z,83.15
2018-08-09T07:30:48.129Z,81.60
2018-08-09T07:31:48.341Z,81.60
2018-08-09T07:32:48.310Z,81.32
2018-08-09T07:33:48.425Z,81.60
2018-08-09T07:34:48.190Z,81.02
2018-08-09T07:35:46.696Z,80.93
2018-08-09T07:36:46.620Z,80.30
2018-08-09T07:37:48.282Z,79.72
2018-08-09T07:38:48.749Z,78.75
2018-08-09T07:39:48.216Z,77.98
2018-08-09T07:40:48.193Z,77.59
2018-08-09T07:41:48.127Z,76.67
2018-08-09T07:42:48.176Z,76.63
2018-08-09T07:43:48.644Z,76.63
2018-08-09T07:44:48.142Z,76.28
2018-08-09T07:45:48.346Z,75.99
2018-08-09T07:46:48.394Z,75.51
2018-08-09T07:47:48.132Z,74.58
2018-08-09T07:48:48.385Z,73.90
2018-08-09T07:49:48.384Z,74.48
2018-08-09T07:50:48.297Z,73.32
2018-08-09T07:51:47.763Z,72.74
2018-08-09T07:52:47.922Z,72.64
2018-08-09T07:54:48.780Z,71.97
2018-08-09T07:55:48.463Z,72.06
2018-08-09T07:56:48.814Z,71.78
2018-08-09T07:57:48.161Z,71.78
2018-08-09T07:58:48.287Z,71.97
2018-08-09T07:59:48.382Z,70.81
2018-08-09T08:00:48.594Z,71.00
2018-08-09T08:01:48.115Z,71.48
2018-08-09T08:02:48.377Z,71.68
2018-08-09T08:03:46.711Z,71.48
2018-08-09T08:04:48.392Z,71.10
2018-08-09T08:05:48.202Z,70.52
2018-08-09T08:06:49.908Z,70.52
2018-08-09T08:07:48.110Z,70.62
2018-08-09T08:08:48.100Z,70.23
2018-08-09T08:09:48.400Z,69.74
2018-08-09T08:10:48.346Z,69.84
2018-08-09T08:11:48.164Z,70.04
2018-08-09T08:12:48.702Z,69.94
2018-08-09T08:13:48.123Z,70.52
2018-08-09T08:14:48.314Z,71.39
2018-08-09T08:15:48.303Z,70.72
2018-08-09T08:16:48.401Z,70.72
2018-08-09T08:17:48.165Z,70.04
2018-08-09T08:18:48.688Z,70.23
2018-08-09T08:19:48.568Z,70.04
2018-08-09T08:20:48.387Z,70.42
2018-08-09T08:21:48.295Z,69.65
2018-08-09T08:22:48.364Z,69.56
2018-08-09T08:23:47.809Z,69.36
2018-08-09T08:24:48.139Z,69.40
2018-08-09T08:25:50.302Z,69.10
2018-08-09T08:26:48.902Z,69.30
2018-08-09T08:27:48.155Z,69.30
2018-08-09T08:28:48.678Z,69.40
2018-08-09T08:29:50.791Z,69.53
2018-08-09T08:30:48.340Z,69.78
2018-08-09T08:31:48.293Z,70.78
2018-08-09T08:32:48.280Z,72.10
2018-08-09T08:33:48.360Z,72.20
2018-08-09T08:34:48.297Z,71.26
2018-08-09T08:35:48.600Z,72.10
2018-08-09T08:36:48.581Z,71.23
2018-08-09T08:37:48.865Z,71.91
2018-08-09T08:38:48.862Z,72.62
2018-08-09T08:39:48.658Z,72.14
2018-08-09T08:40:48.807Z,71.56
2018-08-09T08:41:48.292Z,71.36
2018-08-09T08:42:48.192Z,70.88
2018-08-09T08:43:48.711Z,69.66
2018-08-09T08:44:48.398Z,69.43
2018-08-09T08:45:48.185Z,69.43
2018-08-09T08:46:48.724Z,69.24
2018-08-09T08:47:48.253Z,68.40
2018-08-09T08:48:48.687Z,67.66
2018-08-09T08:49:48.825Z,67.18
2018-08-09T08:50:47.945Z,66.50
2018-08-09T08:51:47.802Z,66.40
2018-08-09T08:52:48.305Z,66.50
2018-08-09T08:53:48.805Z,67.46
2018-08-09T08:54:48.331Z,67.46
2018-08-09T08:55:48.391Z,67.66
2018-08-09T08:56:48.816Z,67.66
2018-08-09T08:57:47.920Z,67.85
2018-08-09T08:58:48.384Z,67.76
2018-08-09T08:59:48.205Z,67.85
2018-08-09T09:00:48.218Z,68.24
2018-08-09T09:01:48.084Z,69.21
2018-08-09T09:02:48.591Z,69.11
2018-08-09T09:03:48.243Z,69.31
2018-08-09T09:04:49.053Z,69.95
2018-08-09T09:05:50.194Z,70.04
2018-08-09T09:06:48.674Z,70.37
2018-08-09T09:07:48.320Z,70.04
2018-08-09T09:08:52.012Z,70.66
2018-08-09T09:09:48.210Z,70.47
2018-08-09T09:10:48.871Z,70.27
2018-08-09T09:11:48.227Z,70.37
2018-08-09T09:12:50.414Z,70.47
2018-08-09T09:13:48.771Z,70.27
2018-08-09T09:14:48.155Z,70.95
2018-08-09T09:15:48.711Z,70.66
2018-08-09T09:16:48.372Z,70.50
2018-08-09T09:17:48.429Z,70.31
2018-08-09T09:18:48.234Z,69.43
2018-08-09T09:19:48.479Z,68.85
2018-08-09T09:20:48.590Z,68.60
2018-08-09T09:21:48.296Z,69.15
2018-08-09T09:22:48.279Z,69.57
2018-08-09T09:23:48.177Z,69.24
2018-08-09T09:24:50.509Z,69.24
2018-08-09T09:25:48.370Z,70.21
2018-08-09T09:27:48.390Z,70.40
2018-08-09T09:28:50.291Z,70.21
2018-08-09T09:29:48.311Z,70.01
2018-08-09T09:30:48.554Z,70.11
2018-08-09T09:31:48.305Z,70.15
2018-08-09T09:32:50.159Z,70.01
2018-08-09T09:33:48.323Z,69.27
2018-08-09T09:34:48.898Z,69.76
2018-08-09T09:35:48.325Z,68.92
2018-08-09T09:36:48.900Z,69.12
2018-08-09T09:37:48.321Z,69.02
2018-08-09T09:38:48.375Z,68.54
2018-08-09T09:39:48.692Z,67.79
2018-08-09T09:40:48.597Z,67.85
2018-08-09T09:41:47.972Z,68.15
2018-08-09T09:42:48.667Z,68.44
2018-08-09T09:43:48.878Z,68.54
2018-08-09T09:44:47.971Z,68.44
2018-08-09T09:45:48.690Z,68.24
2018-08-09T09:46:48.303Z,68.73
2018-08-09T09:47:48.885Z,68.54
2018-08-09T09:48:47.990Z,67.69
2018-08-09T09:49:48.924Z,67.79
2018-08-09T09:50:49.172Z,67.50
2018-08-09T09:51:48.667Z,67.31
2018-08-09T09:52:48.758Z,67.89
2018-08-09T09:53:48.403Z,68.37
2018-08-09T09:54:49.206Z,68.66
2018-08-09T09:55:48.617Z,67.89
2018-08-09T09:56:50.886Z,68.63
2018-08-09T09:57:48.635Z,68.82
2018-08-09T09:58:48.314Z,68.37
2018-08-09T09:59:48.784Z,67.92
2018-08-09T10:00:48.421Z,66.76
2018-08-09T10:01:48.735Z,67.44
2018-08-09T10:02:48.394Z,66.79
2018-08-09T10:03:48.907Z,65.98
2018-08-09T10:04:48.452Z,66.95
2018-08-09T10:05:48.040Z,66.17
2018-08-09T10:06:48.721Z,65.89
2018-08-09T10:07:50.650Z,66.37
2018-08-09T10:08:50.698Z,65.53
2018-08-09T10:09:50.163Z,66.21
2018-08-09T10:10:48.483Z,66.47
2018-08-09T10:11:50.348Z,66.21
2018-08-09T10:12:50.408Z,65.92
2018-08-09T10:13:50.344Z,66.47
2018-08-09T10:14:48.915Z,66.02
2018-08-09T10:15:48.751Z,65.24
2018-08-09T10:16:50.396Z,65.66
2018-08-09T10:17:48.836Z,66.02
2018-08-09T10:18:48.950Z,66.50
2018-08-09T10:19:50.901Z,66.50
2018-08-09T10:20:50.592Z,65.92
2018-08-09T10:21:48.451Z,65.56
2018-08-09T10:22:49.302Z,65.11
2018-08-09T10:23:48.795Z,64.72
2018-08-09T10:24:48.760Z,64.78
2018-08-09T10:25:48.766Z,64.78
2018-08-09T10:26:48.424Z,64.49
2018-08-09T10:27:49.023Z,65.37
2018-08-09T10:28:48.795Z,65.75
2018-08-09T10:29:48.982Z,65.27
2018-08-09T10:30:49.242Z,65.20
2018-08-09T10:31:49.336Z,64.91
2018-08-09T10:32:49.511Z,64.62
2018-08-09T10:33:49.293Z,64.53
2018-08-09T10:34:49.227Z,65.01
2018-08-09T10:35:49.198Z,64.53
2018-08-09T10:36:48.124Z,64.23
2018-08-09T10:37:49.198Z,64.78
2018-08-09T10:38:48.860Z,65.66
2018-08-09T10:39:49.217Z,65.63
2018-08-09T10:40:49.302Z,65.66
2018-08-09T10:41:48.462Z,65.37
2018-08-09T10:42:48.761Z,65.27
2018-08-09T10:43:49.017Z,65.75
2018-08-09T10:44:48.773Z,65.47
2018-08-09T10:45:49.219Z,65.37
2018-08-09T10:46:48.831Z,64.78
2018-08-09T10:47:48.767Z,64.53
2018-08-09T10:48:48.865Z,64.53
2018-08-09T10:49:49.163Z,64.33
2018-08-09T10:50:48.941Z,63.55
2018-08-09T10:51:48.721Z,63.65
2018-08-09T10:52:49.232Z,63.71
2018-08-09T10:53:48.866Z,64.30
2018-08-09T10:54:49.228Z,63.65
2018-08-09T10:55:48.989Z,63.36
2018-08-09T10:56:49.237Z,62.90
2018-08-09T10:57:48.765Z,61.77
2018-08-09T10:58:49.280Z,62.06
2018-08-09T10:59:48.963Z,61.38
2018-08-09T11:00:48.737Z,60.92
2018-08-09T11:01:48.879Z,60.14
2018-08-09T11:02:48.963Z,59.85
2018-08-09T11:03:49.282Z,60.24
2018-08-09T11:04:49.098Z,60.89
2018-08-09T11:05:49.231Z,60.21
2018-08-09T11:06:49.235Z,61.44
2018-08-09T11:07:49.275Z,61.28
2018-08-09T11:08:49.218Z,60.34
2018-08-09T11:09:50.570Z,59.95
2018-08-09T11:10:49.879Z,59.69
2018-08-09T11:11:49.277Z,59.59
2018-08-09T11:12:50.668Z,59.59
2018-08-09T11:13:49.472Z,59.56
2018-08-09T11:14:48.773Z,60.02
2018-08-09T11:15:49.243Z,60.02
2018-08-09T11:16:48.840Z,60.70
2018-08-09T11:17:48.745Z,60.53
2018-08-09T11:18:48.782Z,60.24
2018-08-09T11:19:48.732Z,59.27
2018-08-09T11:20:48.727Z,59.30
2018-08-09T11:21:48.755Z,59.59
2018-08-09T11:22:49.368Z,58.64
2018-08-09T11:23:48.733Z,57.67
2018-08-09T11:24:48.682Z,57.96
2018-08-09T11:26:49.378Z,57.09
2018-08-09T11:27:48.790Z,58.06
2018-08-09T11:28:48.936Z,58.64
2018-08-09T11:29:48.675Z,58.81
2018-08-09T11:30:48.882Z,58.54
2018-08-09T11:31:48.925Z,58.54
2018-08-09T11:32:48.982Z,58.91
2018-08-09T11:34:08.988Z,58.54
2018-08-09T11:34:49.260Z,58.45
2018-08-09T11:35:48.754Z,58.74
2018-08-09T11:36:48.765Z,58.54
2018-08-09T11:37:48.383Z,59.30
2018-08-09T11:38:48.774Z,59.78
2018-08-09T11:39:51.035Z,59.39
2018-08-09T11:40:48.551Z,59.00
2018-08-09T11:41:49.366Z,58.74
2018-08-09T11:42:48.767Z,58.58
2018-08-09T11:43:48.863Z,57.70
2018-08-09T11:44:48.857Z,57.89
2018-08-09T11:47:21.708Z,57.21
2018-08-09T11:48:22.890Z,57.89
2018-08-09T11:50:16.884Z,56.85
2018-08-09T11:51:17.337Z,56.58
2018-08-09T11:53:11.472Z,55.51
2018-08-09T11:54:12.027Z,54.53
2018-08-09T11:56:06.173Z,53.97
2018-08-09T11:57:05.904Z,54.07
2018-08-09T11:59:00.598Z,54.46
2018-08-09T12:00:01.426Z,53.71
2018-08-09T12:01:55.589Z,53.58
2018-08-09T12:02:55.552Z,53.97
2018-08-09T12:04:50.008Z,53.54
2018-08-09T12:05:50.118Z,53.91
2018-08-09T12:07:44.046Z,54.07
2018-08-09T12:08:44.864Z,53.34
2018-08-09T12:10:39.548Z,52.83
2018-08-09T12:12:53.511Z,50.56
2018-08-09T12:13:55.692Z,50.63
2018-08-09T12:15:48.834Z,50.37
2018-08-09T12:16:48.796Z,49.68
2018-08-09T12:18:42.677Z,48.94
2018-08-09T12:19:43.114Z,49.31
2018-08-09T12:21:37.701Z,49.51
2018-08-09T12:22:38.373Z,49.41
2018-08-09T12:24:32.361Z,49.58
2018-08-09T12:25:33.005Z,50.93
2018-08-09T12:27:27.868Z,50.59
2018-08-09T12:28:27.152Z,49.53
2018-08-09T12:30:21.457Z,47.91
2018-08-09T12:31:22.201Z,47.72
2018-08-09T12:33:16.924Z,47.35
2018-08-09T12:34:16.978Z,47.45
2018-08-09T12:36:11.054Z,47.33
2018-08-09T12:37:11.206Z,48.94
2018-08-09T12:39:06.707Z,48.48
2018-08-09T12:40:06.157Z,47.42
2018-08-09T12:43:00.883Z,48.48
2018-08-09T12:44:55.425Z,50.85
2018-08-09T12:45:55.518Z,50.78
2018-08-09T12:47:49.656Z,49.95
2018-08-09T12:48:50.681Z,49.92
2018-08-09T12:50:45.016Z,50.98
2018-08-09T12:51:45.428Z,52.03
2018-08-09T12:52:45.194Z,52.59
2018-08-09T12:53:44.504Z,53.08
2018-08-09T12:54:44.978Z,52.78
2018-08-09T12:55:44.506Z,53.37
2018-08-09T12:56:44.941Z,53.66
2018-08-09T12:57:45.470Z,53.34
2018-08-09T12:58:44.639Z,54.61
2018-08-09T12:59:44.999Z,54.61
2018-08-09T13:00:44.543Z,56.35
2018-08-09T13:01:45.649Z,55.69
2018-08-09T13:02:45.378Z,55.10
2018-08-09T13:03:44.982Z,55.20
2018-08-09T13:04:45.127Z,55.88
2018-08-09T13:05:45.050Z,56.27
2018-08-09T13:06:45.206Z,56.84
2018-08-09T13:07:45.581Z,57.45
2018-08-09T13:08:45.002Z,57.52
2018-08-09T13:09:45.022Z,57.13
2018-08-09T13:10:45.388Z,57.13
2018-08-09T13:11:46.834Z,57.81
2018-08-09T13:12:47.043Z,57.32
2018-08-09T13:13:45.090Z,57.06
2018-08-09T13:14:45.598Z,57.42
2018-08-09T13:15:45.446Z,57.32
2018-08-09T13:16:44.782Z,58.66
2018-08-09T13:17:45.157Z,59.61
2018-08-09T13:18:45.252Z,59.64
2018-08-09T13:19:45.221Z,58.86